LICT/TPS METAR and TAF weather

Enter ICAO airport designator
Station Type Date Time Source
LICT METAR 2019/06/19 06:55 UTC NOAA

LICT 190655Z 32004KT 270V020 CAVOK 22/18 Q1014


Station Type Date Time Source
LICT Decoded METAR 2019/06/19 06:55 UTC NOAA

Trapani / Birgi, Italy (LICT) 37-55N 012-30E 14M
Jun 19, 2019 - 02:55 AM EDT / 2019.06.19 0655 UTC
Wind: from the NW (320 degrees) at 5 MPH (4 KT) (direction variable):0
Visibility: greater than 7 mile(s):0
Temperature: 71 F (22 C)
Dew Point: 64 F (18 C)
Relative Humidity: 78%
Pressure (altimeter): 29.94 in. Hg (1014 hPa)
ob: LICT 190655Z 32004KT 270V020 CAVOK 22/18 Q1014
cycle: 7

Station Type Date Time Source
LICT TAF 2019/01/11 09:24 UTC NOAA

TAF TAF LICT 110800Z 1109/1121 33012KT 9999 SCT025

Example: see airport list